Terminal Aerodrome Forecast
Issued by NWS

Current Version | Previous Version | Text Only | Print | Product List | Glossary On
Versions: 1 2 3 4 5 6 7 8 9 10 11 12 13 14 15 16 17 18 19 20 21 22
000
FTUS46 KLOX 260552
TAFSBP
TAF
KSBP 260552Z 2606/2706 31007KT 6SM BR BKN008
     FM261000 VRB03KT 5SM BR OVC005
     FM261600 VRB03KT 6SM BR BKN010
     FM261800 VRB03KT P6SM SKC
     FM262000 30012KT P6SM SKC
     FM270200 31008KT P6SM SKC
     FM270400 31006KT P6SM BKN010=

USA.gov is the U.S. government's official web portal to all federal, state and local government web resources and services.